sensor_id;sensor_type;location;lat;lon;timestamp;P1;durP1;ratioP1;P2;durP2;ratioP2
30398;SDS011;17195;50.838;7.214;2022-08-27T00:00:04;14.98;;;10.57;;
30398;SDS011;17195;50.838;7.214;2022-08-27T00:02:33;13.52;;;10.48;;
30398;SDS011;17195;50.838;7.214;2022-08-27T00:04:59;14.15;;;11.13;;
30398;SDS011;17195;50.838;7.214;2022-08-27T00:07:26;13.52;;;10.30;;
30398;SDS011;17195;50.838;7.214;2022-08-27T00:09:52;11.38;;;8.82;;
30398;SDS011;17195;50.838;7.214;2022-08-27T00:12:17;12.45;;;10.23;;
30398;SDS011;17195;50.838;7.214;2022-08-27T00:14:43;15.75;;;10.95;;
30398;SDS011;17195;50.838;7.214;2022-08-27T00:17:09;17.80;;;11.02;;
30398;SDS011;17195;50.838;7.214;2022-08-27T00:19:35;12.57;;;9.77;;
30398;SDS011;17195;50.838;7.214;2022-08-27T00:22:02;14.55;;;11.23;;
30398;SDS011;17195;50.838;7.214;2022-08-27T00:24:28;12.68;;;10.70;;
30398;SDS011;17195;50.838;7.214;2022-08-27T00:26:53;14.13;;;11.88;;
30398;SDS011;17195;50.838;7.214;2022-08-27T00:29:19;17.75;;;13.98;;
30398;SDS011;17195;50.838;7.214;2022-08-27T00:31:45;14.98;;;12.82;;
30398;SDS011;17195;50.838;7.214;2022-08-27T00:34:10;16.05;;;13.48;;
30398;SDS011;17195;50.838;7.214;2022-08-27T00:36:36;14.57;;;13.07;;
30398;SDS011;17195;50.838;7.214;2022-08-27T00:39:02;15.20;;;13.60;;
30398;SDS011;17195;50.838;7.214;2022-08-27T00:41:27;16.35;;;12.93;;
30398;SDS011;17195;50.838;7.214;2022-08-27T00:43:55;17.48;;;13.38;;
30398;SDS011;17195;50.838;7.214;2022-08-27T00:46:24;16.23;;;12.75;;
30398;SDS011;17195;50.838;7.214;2022-08-27T00:48:55;14.13;;;12.65;;
30398;SDS011;17195;50.838;7.214;2022-08-27T00:51:24;13.25;;;11.82;;
30398;SDS011;17195;50.838;7.214;2022-08-27T00:53:51;13.52;;;12.13;;
30398;SDS011;17195;50.838;7.214;2022-08-27T00:56:22;14.75;;;11.88;;
30398;SDS011;17195;50.838;7.214;2022-08-27T00:58:52;16.30;;;11.23;;
30398;SDS011;17195;50.838;7.214;2022-08-27T01:01:20;15.15;;;11.48;;
30398;SDS011;17195;50.838;7.214;2022-08-27T01:03:53;15.70;;;12.35;;
30398;SDS011;17195;50.838;7.214;2022-08-27T01:06:21;17.45;;;12.13;;
30398;SDS011;17195;50.838;7.214;2022-08-27T01:08:50;12.88;;;10.85;;
30398;SDS011;17195;50.838;7.214;2022-08-27T01:11:23;15.57;;;10.60;;
30398;SDS011;17195;50.838;7.214;2022-08-27T01:13:49;15.00;;;11.55;;
30398;SDS011;17195;50.838;7.214;2022-08-27T01:16:22;14.27;;;11.70;;
30398;SDS011;17195;50.838;7.214;2022-08-27T01:18:50;12.93;;;9.77;;
30398;SDS011;17195;50.838;7.214;2022-08-27T01:21:26;14.57;;;11.60;;
30398;SDS011;17195;50.838;7.214;2022-08-27T01:25:02;12.40;;;10.77;;
30398;SDS011;17195;50.838;7.214;2022-08-27T01:27:03;13.48;;;12.15;;
30398;SDS011;17195;50.838;7.214;2022-08-27T01:29:31;12.80;;;11.50;;
30398;SDS011;17195;50.838;7.214;2022-08-27T01:32:07;14.43;;;12.60;;
30398;SDS011;17195;50.838;7.214;2022-08-27T01:34:37;12.15;;;10.95;;
30398;SDS011;17195;50.838;7.214;2022-08-27T01:37:03;13.27;;;11.80;;
30398;SDS011;17195;50.838;7.214;2022-08-27T01:39:30;13.10;;;11.43;;
30398;SDS011;17195;50.838;7.214;2022-08-27T01:42:01;14.82;;;12.40;;
30398;SDS011;17195;50.838;7.214;2022-08-27T01:44:49;13.85;;;12.50;;
30398;SDS011;17195;50.838;7.214;2022-08-27T01:47:18;15.98;;;13.88;;
30398;SDS011;17195;50.838;7.214;2022-08-27T01:49:45;13.60;;;11.57;;
30398;SDS011;17195;50.838;7.214;2022-08-27T01:52:11;14.25;;;12.75;;
30398;SDS011;17195;50.838;7.214;2022-08-27T01:54:38;15.45;;;13.25;;
30398;SDS011;17195;50.838;7.214;2022-08-27T01:57:04;18.33;;;12.98;;
30398;SDS011;17195;50.838;7.214;2022-08-27T01:59:29;14.35;;;12.85;;
30398;SDS011;17195;50.838;7.214;2022-08-27T02:01:55;18.00;;;13.15;;
30398;SDS011;17195;50.838;7.214;2022-08-27T02:04:21;17.00;;;13.50;;
30398;SDS011;17195;50.838;7.214;2022-08-27T02:06:47;14.60;;;13.10;;
30398;SDS011;17195;50.838;7.214;2022-08-27T02:09:13;16.50;;;14.02;;
30398;SDS011;17195;50.838;7.214;2022-08-27T02:11:38;19.60;;;15.35;;
30398;SDS011;17195;50.838;7.214;2022-08-27T02:14:04;14.20;;;12.90;;
30398;SDS011;17195;50.838;7.214;2022-08-27T02:16:29;18.23;;;14.68;;
30398;SDS011;17195;50.838;7.214;2022-08-27T02:18:56;17.08;;;15.13;;
30398;SDS011;17195;50.838;7.214;2022-08-27T02:21:22;17.67;;;15.45;;
30398;SDS011;17195;50.838;7.214;2022-08-27T02:23:49;19.25;;;15.75;;
30398;SDS011;17195;50.838;7.214;2022-08-27T02:26:15;18.58;;;15.13;;
30398;SDS011;17195;50.838;7.214;2022-08-27T02:28:40;17.58;;;14.27;;
30398;SDS011;17195;50.838;7.214;2022-08-27T02:31:06;15.00;;;13.43;;
30398;SDS011;17195;50.838;7.214;2022-08-27T02:33:32;15.43;;;13.80;;
30398;SDS011;17195;50.838;7.214;2022-08-27T02:35:57;17.85;;;12.73;;
30398;SDS011;17195;50.838;7.214;2022-08-27T02:38:23;14.70;;;12.93;;
30398;SDS011;17195;50.838;7.214;2022-08-27T02:40:49;15.80;;;12.27;;
30398;SDS011;17195;50.838;7.214;2022-08-27T02:43:14;12.35;;;11.00;;
30398;SDS011;17195;50.838;7.214;2022-08-27T02:45:40;13.02;;;10.25;;
30398;SDS011;17195;50.838;7.214;2022-08-27T02:48:06;15.52;;;11.73;;
30398;SDS011;17195;50.838;7.214;2022-08-27T02:50:32;15.70;;;11.65;;
30398;SDS011;17195;50.838;7.214;2022-08-27T02:52:59;14.40;;;10.27;;
30398;SDS011;17195;50.838;7.214;2022-08-27T02:55:26;11.40;;;8.75;;
30398;SDS011;17195;50.838;7.214;2022-08-27T02:57:52;14.43;;;10.88;;
30398;SDS011;17195;50.838;7.214;2022-08-27T03:00:18;13.18;;;11.30;;
30398;SDS011;17195;50.838;7.214;2022-08-27T03:02:45;14.32;;;9.95;;
30398;SDS011;17195;50.838;7.214;2022-08-27T03:05:11;16.00;;;10.90;;
30398;SDS011;17195;50.838;7.214;2022-08-27T03:07:37;17.15;;;10.02;;
30398;SDS011;17195;50.838;7.214;2022-08-27T03:10:04;14.88;;;11.10;;
30398;SDS011;17195;50.838;7.214;2022-08-27T03:12:31;12.82;;;10.68;;
30398;SDS011;17195;50.838;7.214;2022-08-27T03:14:57;18.45;;;12.57;;
30398;SDS011;17195;50.838;7.214;2022-08-27T03:17:23;17.38;;;12.63;;
30398;SDS011;17195;50.838;7.214;2022-08-27T03:20:07;20.52;;;12.93;;
30398;SDS011;17195;50.838;7.214;2022-08-27T03:22:35;18.40;;;13.88;;
30398;SDS011;17195;50.838;7.214;2022-08-27T03:25:01;17.45;;;12.88;;
30398;SDS011;17195;50.838;7.214;2022-08-27T03:27:27;18.35;;;12.02;;
30398;SDS011;17195;50.838;7.214;2022-08-27T03:29:53;16.80;;;13.07;;
30398;SDS011;17195;50.838;7.214;2022-08-27T03:32:18;19.05;;;13.18;;
30398;SDS011;17195;50.838;7.214;2022-08-27T03:34:44;14.95;;;11.70;;
30398;SDS011;17195;50.838;7.214;2022-08-27T03:37:09;19.83;;;12.48;;
30398;SDS011;17195;50.838;7.214;2022-08-27T03:39:35;24.67;;;16.17;;
30398;SDS011;17195;50.838;7.214;2022-08-27T03:42:01;19.80;;;13.13;;
30398;SDS011;17195;50.838;7.214;2022-08-27T03:44:26;20.30;;;13.27;;
30398;SDS011;17195;50.838;7.214;2022-08-27T03:46:52;17.90;;;13.25;;
30398;SDS011;17195;50.838;7.214;2022-08-27T03:49:18;19.95;;;14.60;;
30398;SDS011;17195;50.838;7.214;2022-08-27T03:51:45;23.35;;;14.77;;
30398;SDS011;17195;50.838;7.214;2022-08-27T03:54:10;24.17;;;16.38;;
30398;SDS011;17195;50.838;7.214;2022-08-27T03:56:36;25.58;;;16.42;;
30398;SDS011;17195;50.838;7.214;2022-08-27T03:59:04;20.42;;;14.43;;
30398;SDS011;17195;50.838;7.214;2022-08-27T04:01:30;23.70;;;15.70;;
30398;SDS011;17195;50.838;7.214;2022-08-27T04:03:56;28.20;;;18.83;;
30398;SDS011;17195;50.838;7.214;2022-08-27T04:06:21;27.52;;;18.55;;
30398;SDS011;17195;50.838;7.214;2022-08-27T04:08:47;24.85;;;17.00;;
30398;SDS011;17195;50.838;7.214;2022-08-27T04:11:12;26.13;;;17.42;;
30398;SDS011;17195;50.838;7.214;2022-08-27T04:13:38;31.08;;;18.25;;
30398;SDS011;17195;50.838;7.214;2022-08-27T04:16:05;22.30;;;16.83;;
30398;SDS011;17195;50.838;7.214;2022-08-27T04:18:31;26.25;;;19.52;;
30398;SDS011;17195;50.838;7.214;2022-08-27T04:20:56;29.55;;;19.42;;
30398;SDS011;17195;50.838;7.214;2022-08-27T04:23:22;28.75;;;18.33;;
30398;SDS011;17195;50.838;7.214;2022-08-27T04:25:48;28.02;;;20.05;;
30398;SDS011;17195;50.838;7.214;2022-08-27T04:28:14;34.00;;;19.80;;
30398;SDS011;17195;50.838;7.214;2022-08-27T04:30:44;27.13;;;18.27;;
30398;SDS011;17195;50.838;7.214;2022-08-27T04:33:11;31.67;;;19.77;;
30398;SDS011;17195;50.838;7.214;2022-08-27T04:35:38;30.35;;;20.27;;
30398;SDS011;17195;50.838;7.214;2022-08-27T04:38:04;28.55;;;19.88;;
30398;SDS011;17195;50.838;7.214;2022-08-27T04:40:30;29.55;;;19.45;;
30398;SDS011;17195;50.838;7.214;2022-08-27T04:43:14;34.17;;;20.95;;
30398;SDS011;17195;50.838;7.214;2022-08-27T04:45:44;26.27;;;19.88;;
30398;SDS011;17195;50.838;7.214;2022-08-27T04:48:12;26.52;;;18.45;;
30398;SDS011;17195;50.838;7.214;2022-08-27T04:50:40;26.77;;;20.40;;
30398;SDS011;17195;50.838;7.214;2022-08-27T04:53:08;26.00;;;19.02;;
30398;SDS011;17195;50.838;7.214;2022-08-27T04:55:39;29.77;;;18.75;;
30398;SDS011;17195;50.838;7.214;2022-08-27T04:58:06;32.28;;;21.15;;
30398;SDS011;17195;50.838;7.214;2022-08-27T05:00:32;27.88;;;21.90;;
30398;SDS011;17195;50.838;7.214;2022-08-27T05:02:57;34.00;;;21.65;;
30398;SDS011;17195;50.838;7.214;2022-08-27T05:05:25;31.98;;;21.48;;
30398;SDS011;17195;50.838;7.214;2022-08-27T05:07:51;29.98;;;20.40;;
30398;SDS011;17195;50.838;7.214;2022-08-27T05:10:16;28.13;;;19.55;;
30398;SDS011;17195;50.838;7.214;2022-08-27T05:12:42;29.20;;;21.02;;
30398;SDS011;17195;50.838;7.214;2022-08-27T05:15:08;30.50;;;20.33;;
30398;SDS011;17195;50.838;7.214;2022-08-27T05:17:33;24.25;;;18.65;;
30398;SDS011;17195;50.838;7.214;2022-08-27T05:19:59;34.35;;;20.55;;
30398;SDS011;17195;50.838;7.214;2022-08-27T05:22:24;30.38;;;20.60;;
30398;SDS011;17195;50.838;7.214;2022-08-27T05:24:51;28.35;;;18.45;;
30398;SDS011;17195;50.838;7.214;2022-08-27T05:27:17;26.92;;;20.17;;
30398;SDS011;17195;50.838;7.214;2022-08-27T05:29:43;29.92;;;20.42;;
30398;SDS011;17195;50.838;7.214;2022-08-27T05:32:08;30.27;;;20.65;;
30398;SDS011;17195;50.838;7.214;2022-08-27T05:34:34;28.48;;;19.40;;
30398;SDS011;17195;50.838;7.214;2022-08-27T05:36:59;26.60;;;19.30;;
30398;SDS011;17195;50.838;7.214;2022-08-27T05:39:25;29.50;;;19.80;;
30398;SDS011;17195;50.838;7.214;2022-08-27T05:41:54;28.67;;;19.08;;
30398;SDS011;17195;50.838;7.214;2022-08-27T05:44:21;30.88;;;18.60;;
30398;SDS011;17195;50.838;7.214;2022-08-27T05:46:46;26.60;;;18.45;;
30398;SDS011;17195;50.838;7.214;2022-08-27T05:49:12;31.45;;;19.77;;
30398;SDS011;17195;50.838;7.214;2022-08-27T05:51:38;31.58;;;19.38;;
30398;SDS011;17195;50.838;7.214;2022-08-27T05:54:05;26.70;;;18.50;;
30398;SDS011;17195;50.838;7.214;2022-08-27T05:56:35;34.33;;;19.83;;
30398;SDS011;17195;50.838;7.214;2022-08-27T05:59:02;28.15;;;19.15;;
30398;SDS011;17195;50.838;7.214;2022-08-27T06:01:48;32.83;;;20.45;;
30398;SDS011;17195;50.838;7.214;2022-08-27T06:04:16;31.42;;;21.05;;
30398;SDS011;17195;50.838;7.214;2022-08-27T06:06:44;35.75;;;20.75;;
30398;SDS011;17195;50.838;7.214;2022-08-27T06:09:11;31.92;;;19.45;;
30398;SDS011;17195;50.838;7.214;2022-08-27T06:11:40;31.20;;;20.25;;
30398;SDS011;17195;50.838;7.214;2022-08-27T06:14:06;33.75;;;21.40;;
30398;SDS011;17195;50.838;7.214;2022-08-27T06:16:36;31.73;;;20.50;;
30398;SDS011;17195;50.838;7.214;2022-08-27T06:19:03;30.33;;;20.13;;
30398;SDS011;17195;50.838;7.214;2022-08-27T06:21:29;29.52;;;19.75;;
30398;SDS011;17195;50.838;7.214;2022-08-27T06:23:55;36.00;;;21.15;;
30398;SDS011;17195;50.838;7.214;2022-08-27T06:26:22;34.53;;;19.40;;
30398;SDS011;17195;50.838;7.214;2022-08-27T06:28:49;31.80;;;19.52;;
30398;SDS011;17195;50.838;7.214;2022-08-27T06:31:22;29.02;;;19.25;;
30398;SDS011;17195;50.838;7.214;2022-08-27T06:33:49;25.73;;;18.85;;
30398;SDS011;17195;50.838;7.214;2022-08-27T06:36:17;32.10;;;20.50;;
30398;SDS011;17195;50.838;7.214;2022-08-27T06:38:45;30.42;;;20.40;;
30398;SDS011;17195;50.838;7.214;2022-08-27T06:41:12;31.63;;;20.35;;
30398;SDS011;17195;50.838;7.214;2022-08-27T06:43:40;30.02;;;20.63;;
30398;SDS011;17195;50.838;7.214;2022-08-27T06:46:07;27.00;;;18.67;;
30398;SDS011;17195;50.838;7.214;2022-08-27T06:48:35;27.42;;;19.08;;
30398;SDS011;17195;50.838;7.214;2022-08-27T06:51:08;31.17;;;19.55;;
30398;SDS011;17195;50.838;7.214;2022-08-27T06:53:36;27.48;;;20.30;;
30398;SDS011;17195;50.838;7.214;2022-08-27T06:56:03;32.63;;;20.83;;
30398;SDS011;17195;50.838;7.214;2022-08-27T06:58:29;30.48;;;21.02;;
30398;SDS011;17195;50.838;7.214;2022-08-27T07:00:55;29.35;;;20.17;;
30398;SDS011;17195;50.838;7.214;2022-08-27T07:03:20;28.35;;;19.70;;
30398;SDS011;17195;50.838;7.214;2022-08-27T07:05:46;30.38;;;20.80;;
30398;SDS011;17195;50.838;7.214;2022-08-27T07:08:11;30.58;;;20.08;;
30398;SDS011;17195;50.838;7.214;2022-08-27T07:10:37;27.65;;;19.52;;
30398;SDS011;17195;50.838;7.214;2022-08-27T07:13:03;30.35;;;20.15;;
30398;SDS011;17195;50.838;7.214;2022-08-27T07:15:29;32.15;;;19.85;;
30398;SDS011;17195;50.838;7.214;2022-08-27T07:17:55;22.85;;;18.05;;
30398;SDS011;17195;50.838;7.214;2022-08-27T07:20:21;27.08;;;19.95;;
30398;SDS011;17195;50.838;7.214;2022-08-27T07:22:47;25.63;;;19.65;;
30398;SDS011;17195;50.838;7.214;2022-08-27T07:25:13;25.75;;;19.05;;
30398;SDS011;17195;50.838;7.214;2022-08-27T07:27:43;24.08;;;18.58;;
30398;SDS011;17195;50.838;7.214;2022-08-27T07:30:10;28.05;;;18.20;;
30398;SDS011;17195;50.838;7.214;2022-08-27T07:32:37;27.45;;;18.15;;
30398;SDS011;17195;50.838;7.214;2022-08-27T07:35:04;22.42;;;16.95;;
30398;SDS011;17195;50.838;7.214;2022-08-27T07:37:33;22.45;;;16.77;;
30398;SDS011;17195;50.838;7.214;2022-08-27T07:40:03;23.13;;;16.38;;
30398;SDS011;17195;50.838;7.214;2022-08-27T07:42:30;20.63;;;15.65;;
30398;SDS011;17195;50.838;7.214;2022-08-27T07:45:15;21.40;;;15.32;;
30398;SDS011;17195;50.838;7.214;2022-08-27T07:47:40;20.38;;;16.00;;
30398;SDS011;17195;50.838;7.214;2022-08-27T07:50:06;17.05;;;13.45;;
30398;SDS011;17195;50.838;7.214;2022-08-27T07:52:32;18.63;;;14.55;;
30398;SDS011;17195;50.838;7.214;2022-08-27T07:54:58;16.73;;;12.95;;
30398;SDS011;17195;50.838;7.214;2022-08-27T07:57:24;16.15;;;12.95;;
30398;SDS011;17195;50.838;7.214;2022-08-27T07:59:49;16.65;;;13.07;;
30398;SDS011;17195;50.838;7.214;2022-08-27T08:02:17;14.15;;;12.68;;
30398;SDS011;17195;50.838;7.214;2022-08-27T08:04:43;17.00;;;13.15;;
30398;SDS011;17195;50.838;7.214;2022-08-27T08:07:09;15.40;;;12.55;;
30398;SDS011;17195;50.838;7.214;2022-08-27T08:09:34;17.83;;;11.98;;
30398;SDS011;17195;50.838;7.214;2022-08-27T08:12:00;15.13;;;10.55;;
30398;SDS011;17195;50.838;7.214;2022-08-27T08:14:26;15.48;;;11.50;;
30398;SDS011;17195;50.838;7.214;2022-08-27T08:16:52;13.30;;;10.25;;
30398;SDS011;17195;50.838;7.214;2022-08-27T08:19:17;13.07;;;10.73;;
30398;SDS011;17195;50.838;7.214;2022-08-27T08:21:43;12.77;;;11.00;;
30398;SDS011;17195;50.838;7.214;2022-08-27T08:24:09;12.70;;;10.25;;
30398;SDS011;17195;50.838;7.214;2022-08-27T08:26:34;10.80;;;9.75;;
30398;SDS011;17195;50.838;7.214;2022-08-27T08:29:00;12.45;;;9.27;;
30398;SDS011;17195;50.838;7.214;2022-08-27T08:31:28;12.10;;;8.80;;
30398;SDS011;17195;50.838;7.214;2022-08-27T08:33:54;12.20;;;8.90;;
30398;SDS011;17195;50.838;7.214;2022-08-27T08:36:20;10.25;;;8.60;;
30398;SDS011;17195;50.838;7.214;2022-08-27T08:38:45;10.30;;;7.47;;
30398;SDS011;17195;50.838;7.214;2022-08-27T08:43:49;9.50;;;8.52;;
30398;SDS011;17195;50.838;7.214;2022-08-27T08:48:46;10.13;;;7.78;;
30398;SDS011;17195;50.838;7.214;2022-08-27T08:51:22;10.13;;;8.38;;
30398;SDS011;17195;50.838;7.214;2022-08-27T08:53:57;9.27;;;6.80;;
30398;SDS011;17195;50.838;7.214;2022-08-27T08:56:29;10.02;;;7.22;;
30398;SDS011;17195;50.838;7.214;2022-08-27T08:59:05;7.68;;;6.75;;
30398;SDS011;17195;50.838;7.214;2022-08-27T09:01:44;9.45;;;6.72;;
30398;SDS011;17195;50.838;7.214;2022-08-27T09:04:10;11.48;;;6.95;;
30398;SDS011;17195;50.838;7.214;2022-08-27T09:10:08;8.68;;;7.57;;
30398;SDS011;17195;50.838;7.214;2022-08-27T09:12:20;9.35;;;7.55;;
30398;SDS011;17195;50.838;7.214;2022-08-27T09:14:50;8.32;;;7.10;;
30398;SDS011;17195;50.838;7.214;2022-08-27T09:17:23;10.20;;;7.60;;
30398;SDS011;17195;50.838;7.214;2022-08-27T09:19:49;7.45;;;6.72;;
30398;SDS011;17195;50.838;7.214;2022-08-27T09:28:00;7.10;;;6.38;;
30398;SDS011;17195;50.838;7.214;2022-08-27T09:30:31;8.70;;;7.43;;
30398;SDS011;17195;50.838;7.214;2022-08-27T09:33:04;7.53;;;6.70;;
30398;SDS011;17195;50.838;7.214;2022-08-27T09:35:43;8.30;;;6.47;;
30398;SDS011;17195;50.838;7.214;2022-08-27T09:38:10;6.65;;;5.93;;
30398;SDS011;17195;50.838;7.214;2022-08-27T09:40:57;10.27;;;6.57;;
30398;SDS011;17195;50.838;7.214;2022-08-27T09:43:25;6.82;;;6.15;;
30398;SDS011;17195;50.838;7.214;2022-08-27T09:45:54;6.60;;;5.90;;
30398;SDS011;17195;50.838;7.214;2022-08-27T09:48:25;8.13;;;6.45;;
30398;SDS011;17195;50.838;7.214;2022-08-27T09:50:54;11.38;;;7.97;;
30398;SDS011;17195;50.838;7.214;2022-08-27T09:55:59;9.50;;;8.10;;
30398;SDS011;17195;50.838;7.214;2022-08-27T09:58:29;10.32;;;7.65;;
30398;SDS011;17195;50.838;7.214;2022-08-27T10:01:15;13.10;;;7.88;;
30398;SDS011;17195;50.838;7.214;2022-08-27T10:03:46;9.50;;;7.15;;
30398;SDS011;17195;50.838;7.214;2022-08-27T10:06:12;6.97;;;6.28;;
30398;SDS011;17195;50.838;7.214;2022-08-27T10:08:42;9.38;;;7.60;;
30398;SDS011;17195;50.838;7.214;2022-08-27T10:24:54;13.40;;;8.00;;
30398;SDS011;17195;50.838;7.214;2022-08-27T10:30:15;8.73;;;6.70;;
30398;SDS011;17195;50.838;7.214;2022-08-27T10:32:53;8.95;;;6.13;;
30398;SDS011;17195;50.838;7.214;2022-08-27T10:38:19;8.45;;;6.15;;
30398;SDS011;17195;50.838;7.214;2022-08-27T10:41:01;11.90;;;5.40;;
30398;SDS011;17195;50.838;7.214;2022-08-27T10:47:18;9.65;;;5.00;;
30398;SDS011;17195;50.838;7.214;2022-08-27T10:54:30;8.15;;;4.88;;
30398;SDS011;17195;50.838;7.214;2022-08-27T10:57:15;10.68;;;4.60;;
30398;SDS011;17195;50.838;7.214;2022-08-27T11:00:03;6.78;;;4.45;;
30398;SDS011;17195;50.838;7.214;2022-08-27T11:02:36;11.55;;;4.13;;
30398;SDS011;17195;50.838;7.214;2022-08-27T11:05:14;8.90;;;4.85;;
30398;SDS011;17195;50.838;7.214;2022-08-27T11:07:47;4.85;;;3.58;;
30398;SDS011;17195;50.838;7.214;2022-08-27T11:10:25;6.57;;;4.00;;
30398;SDS011;17195;50.838;7.214;2022-08-27T11:12:55;6.38;;;3.70;;
30398;SDS011;17195;50.838;7.214;2022-08-27T11:15:25;6.68;;;3.72;;
30398;SDS011;17195;50.838;7.214;2022-08-27T11:20:46;5.38;;;3.10;;
30398;SDS011;17195;50.838;7.214;2022-08-27T11:23:15;5.07;;;3.17;;
30398;SDS011;17195;50.838;7.214;2022-08-27T11:25:53;7.35;;;3.00;;
30398;SDS011;17195;50.838;7.214;2022-08-27T11:28:31;6.60;;;3.13;;
30398;SDS011;17195;50.838;7.214;2022-08-27T11:31:17;5.88;;;3.17;;
30398;SDS011;17195;50.838;7.214;2022-08-27T11:34:00;6.18;;;3.30;;
30398;SDS011;17195;50.838;7.214;2022-08-27T11:36:42;5.53;;;3.13;;
30398;SDS011;17195;50.838;7.214;2022-08-27T11:39:32;3.70;;;3.30;;
30398;SDS011;17195;50.838;7.214;2022-08-27T11:42:35;7.57;;;3.88;;
30398;SDS011;17195;50.838;7.214;2022-08-27T11:45:13;6.75;;;3.70;;
30398;SDS011;17195;50.838;7.214;2022-08-27T11:47:58;10.15;;;3.88;;
30398;SDS011;17195;50.838;7.214;2022-08-27T11:50:26;5.78;;;3.70;;
30398;SDS011;17195;50.838;7.214;2022-08-27T11:53:04;6.47;;;3.90;;
30398;SDS011;17195;50.838;7.214;2022-08-27T11:55:35;5.38;;;4.25;;
30398;SDS011;17195;50.838;7.214;2022-08-27T11:58:07;6.22;;;4.03;;
30398;SDS011;17195;50.838;7.214;2022-08-27T12:00:42;6.90;;;4.40;;
30398;SDS011;17195;50.838;7.214;2022-08-27T12:03:22;5.25;;;4.00;;
30398;SDS011;17195;50.838;7.214;2022-08-27T12:06:02;6.05;;;4.47;;
30398;SDS011;17195;50.838;7.214;2022-08-27T12:08:34;6.45;;;4.55;;
30398;SDS011;17195;50.838;7.214;2022-08-27T12:19:22;8.60;;;5.78;;
30398;SDS011;17195;50.838;7.214;2022-08-27T12:22:00;7.80;;;5.88;;
30398;SDS011;17195;50.838;7.214;2022-08-27T12:24:56;8.65;;;5.82;;
30398;SDS011;17195;50.838;7.214;2022-08-27T12:32:25;8.50;;;5.68;;
30398;SDS011;17195;50.838;7.214;2022-08-27T12:37:51;6.13;;;5.53;;
30398;SDS011;17195;50.838;7.214;2022-08-27T12:40:29;8.15;;;5.75;;
30398;SDS011;17195;50.838;7.214;2022-08-27T12:43:04;7.88;;;5.88;;
30398;SDS011;17195;50.838;7.214;2022-08-27T12:45:32;8.73;;;5.93;;
30398;SDS011;17195;50.838;7.214;2022-08-27T12:48:07;9.00;;;5.80;;
30398;SDS011;17195;50.838;7.214;2022-08-27T12:50:33;9.05;;;4.75;;
30398;SDS011;17195;50.838;7.214;2022-08-27T12:58:07;6.80;;;3.78;;
30398;SDS011;17195;50.838;7.214;2022-08-27T13:03:30;4.05;;;3.25;;
30398;SDS011;17195;50.838;7.214;2022-08-27T13:05:59;7.90;;;4.40;;
30398;SDS011;17195;50.838;7.214;2022-08-27T13:08:34;5.45;;;3.47;;
30398;SDS011;17195;50.838;7.214;2022-08-27T13:14:05;7.43;;;4.35;;
30398;SDS011;17195;50.838;7.214;2022-08-27T13:16:33;9.43;;;4.00;;
30398;SDS011;17195;50.838;7.214;2022-08-27T13:19:00;8.32;;;4.13;;
30398;SDS011;17195;50.838;7.214;2022-08-27T13:21:28;6.53;;;4.15;;
30398;SDS011;17195;50.838;7.214;2022-08-27T13:23:57;6.82;;;4.07;;
30398;SDS011;17195;50.838;7.214;2022-08-27T13:26:26;6.80;;;3.83;;
30398;SDS011;17195;50.838;7.214;2022-08-27T13:28:55;6.22;;;3.88;;
30398;SDS011;17195;50.838;7.214;2022-08-27T13:31:22;8.95;;;3.65;;
30398;SDS011;17195;50.838;7.214;2022-08-27T13:33:49;7.78;;;3.05;;
30398;SDS011;17195;50.838;7.214;2022-08-27T13:36:31;6.13;;;3.38;;
30398;SDS011;17195;50.838;7.214;2022-08-27T13:39:00;10.20;;;3.85;;
30398;SDS011;17195;50.838;7.214;2022-08-27T13:41:29;7.10;;;3.40;;
30398;SDS011;17195;50.838;7.214;2022-08-27T13:44:07;6.90;;;3.45;;
30398;SDS011;17195;50.838;7.214;2022-08-27T13:46:42;7.00;;;3.85;;
30398;SDS011;17195;50.838;7.214;2022-08-27T13:49:23;5.35;;;3.03;;
30398;SDS011;17195;50.838;7.214;2022-08-27T13:54:41;6.80;;;3.35;;
30398;SDS011;17195;50.838;7.214;2022-08-27T13:57:09;4.50;;;3.55;;
30398;SDS011;17195;50.838;7.214;2022-08-27T13:59:38;7.72;;;3.50;;
30398;SDS011;17195;50.838;7.214;2022-08-27T14:04:37;11.85;;;3.58;;
30398;SDS011;17195;50.838;7.214;2022-08-27T14:07:09;5.60;;;3.58;;
30398;SDS011;17195;50.838;7.214;2022-08-27T14:09:41;5.07;;;3.60;;
30398;SDS011;17195;50.838;7.214;2022-08-27T14:12:16;5.95;;;3.25;;
30398;SDS011;17195;50.838;7.214;2022-08-27T14:14:48;4.20;;;3.28;;
30398;SDS011;17195;50.838;7.214;2022-08-27T14:17:20;5.30;;;3.53;;
30398;SDS011;17195;50.838;7.214;2022-08-27T14:19:48;5.00;;;2.85;;
30398;SDS011;17195;50.838;7.214;2022-08-27T14:22:13;9.38;;;4.22;;
30398;SDS011;17195;50.838;7.214;2022-08-27T14:24:39;6.45;;;3.85;;
30398;SDS011;17195;50.838;7.214;2022-08-27T14:27:07;3.70;;;3.20;;
30398;SDS011;17195;50.838;7.214;2022-08-27T14:29:34;7.45;;;4.05;;
30398;SDS011;17195;50.838;7.214;2022-08-27T14:32:01;7.50;;;4.00;;
30398;SDS011;17195;50.838;7.214;2022-08-27T14:34:27;5.72;;;4.07;;
30398;SDS011;17195;50.838;7.214;2022-08-27T14:36:53;7.05;;;4.50;;
30398;SDS011;17195;50.838;7.214;2022-08-27T14:39:18;8.60;;;4.55;;
30398;SDS011;17195;50.838;7.214;2022-08-27T14:41:44;5.75;;;4.38;;
30398;SDS011;17195;50.838;7.214;2022-08-27T14:44:09;7.28;;;4.38;;
30398;SDS011;17195;50.838;7.214;2022-08-27T14:46:35;9.25;;;4.25;;
30398;SDS011;17195;50.838;7.214;2022-08-27T14:49:02;8.95;;;4.70;;
30398;SDS011;17195;50.838;7.214;2022-08-27T14:51:34;4.07;;;3.38;;
30398;SDS011;17195;50.838;7.214;2022-08-27T14:54:01;6.53;;;3.90;;
30398;SDS011;17195;50.838;7.214;2022-08-27T14:56:27;9.77;;;3.97;;
30398;SDS011;17195;50.838;7.214;2022-08-27T14:58:53;5.82;;;3.70;;
30398;SDS011;17195;50.838;7.214;2022-08-27T15:01:21;7.43;;;4.05;;
30398;SDS011;17195;50.838;7.214;2022-08-27T15:03:48;5.50;;;3.17;;
30398;SDS011;17195;50.838;7.214;2022-08-27T15:06:15;5.60;;;3.30;;
30398;SDS011;17195;50.838;7.214;2022-08-27T15:08:42;5.05;;;3.10;;
30398;SDS011;17195;50.838;7.214;2022-08-27T15:11:11;7.40;;;3.30;;
30398;SDS011;17195;50.838;7.214;2022-08-27T15:13:41;6.63;;;3.90;;
30398;SDS011;17195;50.838;7.214;2022-08-27T15:16:07;8.50;;;3.53;;
30398;SDS011;17195;50.838;7.214;2022-08-27T15:18:33;5.60;;;2.60;;
30398;SDS011;17195;50.838;7.214;2022-08-27T15:20:59;7.50;;;3.75;;
30398;SDS011;17195;50.838;7.214;2022-08-27T15:23:24;9.38;;;3.80;;
30398;SDS011;17195;50.838;7.214;2022-08-27T15:25:50;5.20;;;2.70;;
30398;SDS011;17195;50.838;7.214;2022-08-27T15:28:16;8.85;;;3.30;;
30398;SDS011;17195;50.838;7.214;2022-08-27T15:30:41;6.35;;;3.00;;
30398;SDS011;17195;50.838;7.214;2022-08-27T15:33:07;7.53;;;3.40;;
30398;SDS011;17195;50.838;7.214;2022-08-27T15:35:33;8.55;;;4.10;;
30398;SDS011;17195;50.838;7.214;2022-08-27T15:37:58;7.25;;;3.35;;
30398;SDS011;17195;50.838;7.214;2022-08-27T15:40:25;7.78;;;3.40;;
30398;SDS011;17195;50.838;7.214;2022-08-27T15:42:57;7.35;;;3.17;;
30398;SDS011;17195;50.838;7.214;2022-08-27T15:45:26;10.68;;;3.80;;
30398;SDS011;17195;50.838;7.214;2022-08-27T15:47:52;5.65;;;3.25;;
30398;SDS011;17195;50.838;7.214;2022-08-27T15:50:18;6.97;;;3.40;;
30398;SDS011;17195;50.838;7.214;2022-08-27T15:52:44;7.85;;;3.72;;
30398;SDS011;17195;50.838;7.214;2022-08-27T15:55:18;9.60;;;3.47;;
30398;SDS011;17195;50.838;7.214;2022-08-27T15:57:49;5.53;;;3.78;;
30398;SDS011;17195;50.838;7.214;2022-08-27T16:00:15;6.72;;;4.13;;